Terminal Aerodrome Forecast
Issued by NWS Bismarck, ND

Home | Current Version | Previous Version | Graphics & Text | Print | Product List | Glossary On
Versions: 1 2 3 4 5 6 7 8 9 10 11 12 13 14 15 16 17 18 19 20
000
FTUS43 KBIS 250431 AAA
TAFBIS
TAF AMD
KBIS 250431Z 2505/2524 11007KT P6SM VCSH BKN060 OVC090
     FM250800 04007KT 5SM -RA BR BKN015 OVC025
     FM251500 VRB06KT P6SM -RA BKN015 OVC025
     FM252000 22007KT P6SM VCSH BKN035 OVC060
     FM252200 28007KT P6SM BKN060=

USA.gov is the U.S. government's official web portal to all federal, state and local government web resources and services.